Jarvie, Canada
Current Conditions -  °F | °C
As of 5:00 AM on Monday 20 Oct 2014 (Local Time) from CZVL Reporting Station
Clear Clear  
Wind Chill: 30°   Ceiling: Unl
Heat Index: 34°   Visibility: 9mi
Dew Point: 32°   Wind: 5mph
Humidity: 93%   Direction: 330°NNW
Pressure: 29.58"   Gusts: NA
Location:  54.45°N, 113.98°W
Report Text: CZVL 201100Z AUTO 33004KT 9SM CLR 01/M00 A2958 RMK SLP032
Loading
Personal Weather Stations






























Interactive Weather Map
Tropical Storm Tracking
New forecast layout! Learn more

10-Day Weather Forecast

Advertisements
Track Severe Weather on mobile